Geronimo — PD6553 — position and weather

sailwx.info

Track history (hours):
 
Tides and Currents Weather Stations Pressure Air Temp Water Temp Dewpoint Dewpoint Depression Visibility Wind Speed Wind Dir Waves Ship Positions

Geronimo

Last reported at 2017-Oct-28 19:00 UTC. Time now 2017-Dec-16 17:08 UTC.
Position N 39°34' E 002°38'.
Warning: this ship's position is 48 days out of date.

Length 20 m; draft 2.9 m.

Type: Sailing vessel. MMSI: 244620501.

Date/timePositionNaut miles runAvg speedWind from/ knotsBaromVisibWave heightAir tempDewpointWater temp
2017-Oct-28 19:00N 39°34' E 002°38'0 0.0
2017-Oct-28 18:30N 39°34' E 002°38'0 0.0
2017-Oct-28 18:00N 39°34' E 002°38'0 0.0
2017-Oct-28 17:30N 39°34' E 002°38'0 0.0
2017-Oct-28 17:00N 39°34' E 002°38'0 0.0
2017-Oct-28 16:30N 39°34' E 002°38'0 0.0
2017-Oct-28 16:00N 39°34' E 002°38'0 0.0
2017-Oct-28 15:30N 39°34' E 002°38'1 2.9
2017-Oct-28 15:00N 39°33' E 002°39'3 5.1
2017-Oct-28 14:30N 39°31' E 002°42'2 4.9
2017-Oct-28 14:00N 39°29' E 002°44'0 0.0
2017-Oct-28 13:30N 39°29' E 002°44'0 0.0
2017-Oct-28 13:00N 39°29' E 002°44'0 0.0
2017-Oct-28 12:25N 39°29' E 002°44'0 0.0
2017-Oct-28 12:00N 39°29' E 002°44'0 0.0
2017-Oct-28 11:30N 39°29' E 002°44'0 0.0
2017-Oct-28 11:00N 39°29' E 002°44'0 0.0
2017-Oct-28 10:30N 39°29' E 002°44'0 0.0
2017-Oct-28 10:00N 39°29' E 002°44'0 0.0
2017-Oct-28 09:30N 39°29' E 002°44'0 0.0
2017-Oct-28 09:00N 39°29' E 002°44'2 4.7
2017-Oct-28 08:30N 39°27' E 002°44'3 5.8
2017-Oct-28 08:00N 39°24' E 002°44'13 0.9
2017-Oct-27 18:00N 39°19' E 003°00'0 0.0
2017-Oct-27 17:28N 39°19' E 003°00'0 0.0
2017-Oct-27 17:00N 39°19' E 003°00'0 0.0
2017-Oct-27 16:27N 39°19' E 003°00'0 0.0
2017-Oct-27 15:35N 39°19' E 003°00'0 0.8
2017-Oct-27 15:15N 39°19' E 003°00'0 0.0
2017-Oct-27 14:51N 39°19' E 003°00'0 0.0
2017-Oct-27 14:26N 39°19' E 003°00'0 0.0
2017-Oct-27 13:57N 39°19' E 003°00'0 0.0
2017-Oct-27 13:23N 39°19' E 003°00'0 0.0
2017-Oct-27 12:56N 39°19' E 003°00'1 1.0
2017-Oct-27 12:21N 39°18' E 003°00'2 5.4
2017-Oct-27 11:59N 39°16' E 003°01'9 0.7
2017-Oct-26 23:50N 39°21' E 003°11'  
Track history (hours):
 
Tides and Currents Weather Stations Pressure Air Temp Water Temp Dewpoint Dewpoint Depression Visibility Wind Speed Wind Dir Waves Ship Positions

Geronimo

Last reported at 2017-Oct-28 19:00 UTC. Time now 2017-Dec-16 17:08 UTC.
Position N 39°34' E 002°38'.
Warning: this ship's position is 48 days out of date.

Length 20 m; draft 2.9 m.

Type: Sailing vessel. MMSI: 244620501.

Date/timePositionNaut miles runAvg speedWind from/ knotsBaromVisibWave heightAir tempDewpointWater temp
2017-Oct-28 19:00N 39°34' E 002°38'0 0.0
2017-Oct-28 18:30N 39°34' E 002°38'0 0.0
2017-Oct-28 18:00N 39°34' E 002°38'0 0.0
2017-Oct-28 17:30N 39°34' E 002°38'0 0.0
2017-Oct-28 17:00N 39°34' E 002°38'0 0.0
2017-Oct-28 16:30N 39°34' E 002°38'0 0.0
2017-Oct-28 16:00N 39°34' E 002°38'0 0.0
2017-Oct-28 15:30N 39°34' E 002°38'1 2.9
2017-Oct-28 15:00N 39°33' E 002°39'3 5.1
2017-Oct-28 14:30N 39°31' E 002°42'2 4.9
2017-Oct-28 14:00N 39°29' E 002°44'0 0.0
2017-Oct-28 13:30N 39°29' E 002°44'0 0.0
2017-Oct-28 13:00N 39°29' E 002°44'0 0.0
2017-Oct-28 12:25N 39°29' E 002°44'0 0.0
2017-Oct-28 12:00N 39°29' E 002°44'0 0.0
2017-Oct-28 11:30N 39°29' E 002°44'0 0.0
2017-Oct-28 11:00N 39°29' E 002°44'0 0.0
2017-Oct-28 10:30N 39°29' E 002°44'0 0.0
2017-Oct-28 10:00N 39°29' E 002°44'0 0.0
2017-Oct-28 09:30N 39°29' E 002°44'0 0.0
2017-Oct-28 09:00N 39°29' E 002°44'2 4.7
2017-Oct-28 08:30N 39°27' E 002°44'3 5.8
2017-Oct-28 08:00N 39°24' E 002°44'13 0.9
2017-Oct-27 18:00N 39°19' E 003°00'0 0.0
2017-Oct-27 17:28N 39°19' E 003°00'0 0.0
2017-Oct-27 17:00N 39°19' E 003°00'0 0.0
2017-Oct-27 16:27N 39°19' E 003°00'0 0.0
2017-Oct-27 15:35N 39°19' E 003°00'0 0.8
2017-Oct-27 15:15N 39°19' E 003°00'0 0.0
2017-Oct-27 14:51N 39°19' E 003°00'0 0.0
2017-Oct-27 14:26N 39°19' E 003°00'0 0.0
2017-Oct-27 13:57N 39°19' E 003°00'0 0.0
2017-Oct-27 13:23N 39°19' E 003°00'0 0.0
2017-Oct-27 12:56N 39°19' E 003°00'1 1.0
2017-Oct-27 12:21N 39°18' E 003°00'2 5.4
2017-Oct-27 11:59N 39°16' E 003°01'9 0.7
2017-Oct-26 23:50N 39°21' E 003°11'  

Dump ship's entire track history